createdAt,value
2017-12-13T00:00:55.557Z,0.00
2017-12-13T00:01:55.434Z,0.00
2017-12-13T00:02:55.468Z,0.00
2017-12-13T00:03:55.371Z,0.00
2017-12-13T00:04:55.379Z,0.00
2017-12-13T00:05:55.300Z,0.00
2017-12-13T00:06:55.414Z,0.00
2017-12-13T00:07:55.229Z,0.00
2017-12-13T00:08:55.301Z,0.00
2017-12-13T00:09:55.159Z,0.00
2017-12-13T00:10:55.211Z,0.00
2017-12-13T00:11:55.097Z,0.00
2017-12-13T00:12:55.123Z,0.00
2017-12-13T00:13:55.022Z,0.00
2017-12-13T00:14:55.041Z,0.00
2017-12-13T00:15:54.960Z,0.00
2017-12-13T00:16:55.046Z,0.00
2017-12-13T00:17:54.902Z,0.00
2017-12-13T00:18:54.961Z,0.00
2017-12-13T00:19:54.825Z,0.00
2017-12-13T00:20:54.875Z,0.00
2017-12-13T00:21:54.755Z,0.00
2017-12-13T00:22:54.781Z,0.00
2017-12-13T00:23:54.684Z,0.00
2017-12-13T00:24:54.695Z,0.00
2017-12-13T00:25:54.616Z,0.00
2017-12-13T00:26:54.711Z,0.00
2017-12-13T00:27:54.555Z,0.00
2017-12-13T00:28:54.621Z,0.00
2017-12-13T00:29:54.476Z,0.00
2017-12-13T00:30:54.532Z,0.00
2017-12-13T00:31:54.412Z,0.00
2017-12-13T00:32:54.445Z,0.00
2017-12-13T00:33:54.350Z,0.00
2017-12-13T00:34:54.456Z,0.00
2017-12-13T00:35:54.276Z,0.00
2017-12-13T00:36:54.370Z,0.00
2017-12-13T00:37:54.213Z,0.00
2017-12-13T00:38:54.283Z,0.00
2017-12-13T00:39:54.140Z,0.00
2017-12-13T00:40:54.192Z,0.00
2017-12-13T00:41:54.073Z,0.00
2017-12-13T00:42:54.101Z,0.00
2017-12-13T00:43:54.011Z,0.00
2017-12-13T00:44:54.115Z,0.00
2017-12-13T00:45:53.942Z,0.00
2017-12-13T00:46:54.028Z,0.00
2017-12-13T00:47:53.865Z,0.00
2017-12-13T00:48:53.937Z,0.00
2017-12-13T00:49:53.798Z,0.00
2017-12-13T00:50:53.849Z,0.00
2017-12-13T00:51:53.735Z,0.00
2017-12-13T00:52:53.778Z,0.00
2017-12-13T00:53:53.676Z,0.00
2017-12-13T00:54:53.776Z,0.00
2017-12-13T00:55:53.593Z,0.00
2017-12-13T00:56:53.686Z,0.00
2017-12-13T00:57:53.523Z,0.00
2017-12-13T00:58:53.600Z,0.00
2017-12-13T00:59:53.454Z,0.00
2017-12-13T01:00:53.509Z,0.00
2017-12-13T01:01:53.395Z,0.00
2017-12-13T01:02:53.427Z,0.00
2017-12-13T01:03:53.325Z,0.00
2017-12-13T01:04:53.433Z,0.00
2017-12-13T01:05:53.255Z,0.00
2017-12-13T01:06:53.346Z,0.00
2017-12-13T01:07:53.187Z,0.00
2017-12-13T01:08:53.255Z,0.00
2017-12-13T01:09:53.113Z,0.00
2017-12-13T01:10:53.167Z,0.00
2017-12-13T01:11:53.051Z,0.00
2017-12-13T01:12:53.182Z,0.00
2017-12-13T01:13:52.975Z,0.00
2017-12-13T01:14:53.094Z,0.00
2017-12-13T01:15:52.914Z,0.00
2017-12-13T01:16:53.007Z,0.00
2017-12-13T01:17:52.843Z,0.00
2017-12-13T01:18:52.918Z,0.00
2017-12-13T01:19:52.774Z,0.00
2017-12-13T01:20:52.828Z,0.00
2017-12-13T01:21:52.706Z,0.00
2017-12-13T01:22:52.843Z,0.00
2017-12-13T01:23:52.640Z,0.00
2017-12-13T01:24:52.753Z,0.00
2017-12-13T01:25:52.568Z,0.00
2017-12-13T01:26:52.665Z,0.00
2017-12-13T01:27:52.505Z,0.00
2017-12-13T01:28:52.576Z,0.00
2017-12-13T01:29:52.433Z,0.00
2017-12-13T01:30:52.488Z,0.00
2017-12-13T01:31:52.366Z,0.00
2017-12-13T01:32:52.501Z,0.00
2017-12-13T01:33:52.301Z,0.00
2017-12-13T01:34:52.413Z,0.00
2017-12-13T01:35:52.228Z,0.00
2017-12-13T01:36:52.322Z,0.00
2017-12-13T01:37:52.165Z,0.00
2017-12-13T01:38:52.234Z,0.00
2017-12-13T01:39:52.088Z,0.00
2017-12-13T01:40:52.249Z,0.00
2017-12-13T01:41:52.030Z,0.00
2017-12-13T01:42:52.163Z,0.00
2017-12-13T01:43:51.954Z,0.00
2017-12-13T01:44:52.073Z,0.00
2017-12-13T01:45:51.886Z,0.00
2017-12-13T01:46:51.982Z,0.00
2017-12-13T01:47:51.819Z,0.00
2017-12-13T01:48:51.897Z,0.00
2017-12-13T01:49:51.747Z,0.00
2017-12-13T01:50:51.915Z,0.00
2017-12-13T01:51:51.689Z,0.00
2017-12-13T01:52:51.824Z,0.00
2017-12-13T01:53:51.617Z,0.00
2017-12-13T01:54:51.733Z,0.00
2017-12-13T01:55:51.548Z,0.00
2017-12-13T01:56:51.644Z,0.00
2017-12-13T01:57:51.476Z,0.00
2017-12-13T01:58:51.556Z,0.00
2017-12-13T01:59:51.405Z,0.00
2017-12-13T02:00:51.572Z,0.00
2017-12-13T02:01:51.345Z,0.00
2017-12-13T02:02:51.481Z,0.00
2017-12-13T02:03:51.279Z,0.00
2017-12-13T02:04:51.393Z,0.00
2017-12-13T02:05:51.203Z,0.00
2017-12-13T02:06:51.305Z,0.00
2017-12-13T02:07:51.140Z,0.00
2017-12-13T02:08:51.215Z,0.00
2017-12-13T02:09:51.067Z,0.00
2017-12-13T02:10:51.228Z,0.00
2017-12-13T02:11:51.000Z,0.00
2017-12-13T02:12:51.140Z,0.00
2017-12-13T02:13:50.936Z,0.00
2017-12-13T02:14:51.053Z,0.00
2017-12-13T02:15:50.860Z,0.00
2017-12-13T02:16:50.962Z,0.00
2017-12-13T02:17:50.796Z,0.00
2017-12-13T02:18:50.973Z,0.00
2017-12-13T02:19:50.724Z,0.00
2017-12-13T02:20:50.892Z,0.00
2017-12-13T02:21:50.656Z,0.00
2017-12-13T02:22:50.802Z,0.00
2017-12-13T02:26:54.748Z,0.00
2017-12-13T02:27:54.631Z,0.00
2017-12-13T02:29:47.704Z,0.00
2017-12-13T02:30:47.681Z,0.00
2017-12-13T02:32:40.659Z,0.00
2017-12-13T02:33:40.538Z,0.00
2017-12-13T02:35:33.615Z,0.00
2017-12-13T02:36:33.497Z,0.00
2017-12-13T02:38:26.467Z,0.00
2017-12-13T02:39:26.348Z,0.00
2017-12-13T02:41:19.318Z,0.00
2017-12-13T02:42:19.212Z,0.00
2017-12-13T02:44:12.169Z,0.00
2017-12-13T02:45:12.057Z,0.00
2017-12-13T02:47:05.022Z,0.00
2017-12-13T02:48:04.968Z,0.00
2017-12-13T02:49:57.875Z,0.00
2017-12-13T02:50:57.763Z,0.00
2017-12-13T02:52:50.735Z,0.00
2017-12-13T02:53:50.614Z,0.00
2017-12-13T02:55:43.579Z,0.00
2017-12-13T02:56:43.472Z,0.00
2017-12-13T02:58:36.431Z,0.00
2017-12-13T02:59:36.319Z,0.00
2017-12-13T03:01:29.284Z,0.00
2017-12-13T03:02:29.174Z,0.00
2017-12-13T03:04:22.147Z,0.00
2017-12-13T03:05:22.027Z,0.00
2017-12-13T03:07:14.996Z,0.00
2017-12-13T03:08:14.874Z,0.00
2017-12-13T03:10:07.872Z,0.00
2017-12-13T03:11:07.729Z,0.00
2017-12-13T03:13:00.701Z,0.00
2017-12-13T03:14:00.584Z,0.00
2017-12-13T03:15:53.552Z,0.00
2017-12-13T03:16:53.437Z,0.00
2017-12-13T03:18:46.406Z,0.00
2017-12-13T03:19:46.290Z,0.00
2017-12-13T03:21:40.275Z,0.00
2017-12-13T03:22:39.142Z,0.00
2017-12-13T03:24:33.134Z,0.00
2017-12-13T03:25:31.999Z,0.00
2017-12-13T03:27:24.961Z,0.00
2017-12-13T03:28:24.859Z,0.00
2017-12-13T03:30:17.917Z,0.00
2017-12-13T03:31:17.709Z,0.00
2017-12-13T03:33:10.668Z,0.00
2017-12-13T03:34:10.568Z,0.00
2017-12-13T03:36:03.623Z,0.00
2017-12-13T03:37:03.406Z,0.00
2017-12-13T03:38:56.373Z,0.00
2017-12-13T03:39:56.252Z,0.00
2017-12-13T03:41:49.327Z,0.00
2017-12-13T03:42:49.112Z,0.00
2017-12-13T03:44:42.077Z,0.00
2017-12-13T03:45:41.969Z,0.00
2017-12-13T03:47:35.029Z,0.00
2017-12-13T03:48:34.816Z,0.00
2017-12-13T03:50:27.885Z,0.00
2017-12-13T03:51:27.674Z,0.00
2017-12-13T03:53:20.736Z,0.00
2017-12-13T03:54:20.516Z,0.00
2017-12-13T03:56:13.692Z,0.00
2017-12-13T03:57:13.479Z,0.00
2017-12-13T03:59:06.647Z,0.00
2017-12-13T04:00:06.433Z,0.00
2017-12-13T04:01:59.614Z,0.00
2017-12-13T04:02:59.389Z,0.00
2017-12-13T04:04:52.554Z,0.00
2017-12-13T04:05:52.342Z,0.00
2017-12-13T04:07:45.514Z,0.00
2017-12-13T04:08:45.296Z,0.00
2017-12-13T04:09:45.396Z,0.00
2017-12-13T04:10:45.232Z,0.00
2017-12-13T04:11:45.305Z,0.00
2017-12-13T04:12:45.158Z,0.00
2017-12-13T04:13:45.218Z,0.00
2017-12-13T04:14:45.091Z,0.00
2017-12-13T04:15:45.232Z,0.00
2017-12-13T04:16:45.024Z,0.00
2017-12-13T04:17:45.144Z,0.00
2017-12-13T04:18:44.958Z,0.00
2017-12-13T04:19:45.056Z,0.00
2017-12-13T04:20:44.883Z,0.00
2017-12-13T04:21:44.967Z,0.00
2017-12-13T04:22:44.817Z,0.00
2017-12-13T04:23:44.983Z,0.00
2017-12-13T04:24:44.751Z,0.00
2017-12-13T04:25:44.889Z,0.00
2017-12-13T04:26:44.682Z,0.00
2017-12-13T04:27:44.810Z,0.00
2017-12-13T04:28:44.615Z,0.00
2017-12-13T04:29:44.721Z,0.00
2017-12-13T04:30:44.546Z,0.00
2017-12-13T04:31:44.633Z,0.00
2017-12-13T04:32:44.482Z,0.00
2017-12-13T04:33:44.637Z,0.00
2017-12-13T04:34:44.413Z,0.00
2017-12-13T04:35:44.554Z,0.00
2017-12-13T04:36:44.343Z,0.00
2017-12-13T04:37:44.464Z,0.00
2017-12-13T04:38:44.274Z,0.00
2017-12-13T04:39:44.380Z,0.00
2017-12-13T04:40:44.204Z,0.00
2017-12-13T04:41:44.395Z,0.00
2017-12-13T04:42:44.141Z,0.00
2017-12-13T04:43:44.303Z,0.00
2017-12-13T04:44:44.075Z,0.00
2017-12-13T04:45:44.214Z,0.00
2017-12-13T04:46:44.006Z,0.00
2017-12-13T04:47:44.125Z,0.00
2017-12-13T04:48:43.934Z,0.00
2017-12-13T04:49:44.034Z,0.00
2017-12-13T04:50:43.870Z,0.00
2017-12-13T04:51:44.052Z,0.00
2017-12-13T04:52:43.804Z,0.00
2017-12-13T04:53:43.963Z,0.00
2017-12-13T04:54:43.737Z,0.00
2017-12-13T04:55:43.875Z,0.00
2017-12-13T04:56:43.667Z,0.00
2017-12-13T04:57:43.797Z,0.00
2017-12-13T04:58:43.599Z,0.00
2017-12-13T04:59:43.603Z,0.00
2017-12-13T05:00:43.530Z,0.00
2017-12-13T05:01:43.606Z,0.00
2017-12-13T05:02:43.471Z,0.00
2017-12-13T05:03:43.520Z,0.00
2017-12-13T05:04:43.397Z,0.00
2017-12-13T05:05:43.430Z,0.00
2017-12-13T05:06:43.333Z,0.00
2017-12-13T05:07:43.348Z,0.00
2017-12-13T05:08:43.269Z,0.00
2017-12-13T05:09:43.356Z,0.00
2017-12-13T05:10:43.197Z,0.00
2017-12-13T05:11:43.267Z,0.00
2017-12-13T05:12:43.128Z,0.00
2017-12-13T05:13:43.176Z,0.00
2017-12-13T05:14:43.058Z,0.00
2017-12-13T05:15:43.086Z,0.00
2017-12-13T05:16:43.007Z,0.00
2017-12-13T05:17:43.000Z,0.00
2017-12-13T05:18:42.920Z,0.00
2017-12-13T05:19:43.020Z,0.00
2017-12-13T05:20:42.863Z,0.00
2017-12-13T05:21:42.922Z,0.00
2017-12-13T05:22:42.792Z,0.00
2017-12-13T05:23:42.835Z,0.00
2017-12-13T05:24:42.727Z,0.00
2017-12-13T05:25:42.746Z,0.00
2017-12-13T05:26:42.658Z,0.00
2017-12-13T05:27:42.758Z,0.00
2017-12-13T05:28:42.585Z,0.00
2017-12-13T05:29:42.676Z,0.00
2017-12-13T05:30:42.518Z,0.00
2017-12-13T05:31:42.580Z,0.00
2017-12-13T05:32:42.452Z,0.00
2017-12-13T05:33:42.496Z,0.00
2017-12-13T05:34:42.385Z,0.00
2017-12-13T05:35:42.406Z,0.00
2017-12-13T05:36:42.320Z,0.00
2017-12-13T05:37:42.417Z,0.00
2017-12-13T05:38:42.256Z,0.00
2017-12-13T05:39:42.338Z,0.00
2017-12-13T05:40:42.187Z,0.00
2017-12-13T05:41:42.242Z,0.00
2017-12-13T05:42:42.119Z,0.00
2017-12-13T05:43:42.152Z,0.00
2017-12-13T05:44:42.054Z,0.00
2017-12-13T05:45:42.166Z,0.00
2017-12-13T05:46:41.982Z,0.00
2017-12-13T05:47:42.075Z,0.00
2017-12-13T05:48:41.915Z,0.00
2017-12-13T05:49:41.987Z,0.00
2017-12-13T05:50:41.851Z,0.00
2017-12-13T05:51:41.897Z,0.00
2017-12-13T05:52:41.791Z,0.00
2017-12-13T05:53:41.808Z,0.00
2017-12-13T05:54:41.713Z,0.00
2017-12-13T05:55:41.823Z,0.00
2017-12-13T05:56:41.652Z,0.00
2017-12-13T05:57:41.734Z,0.00
2017-12-13T05:58:41.582Z,0.00
2017-12-13T05:59:41.646Z,0.00
2017-12-13T06:00:41.583Z,0.00
2017-12-13T06:01:42.582Z,0.00
2017-12-13T06:02:41.460Z,0.00
2017-12-13T06:03:41.581Z,0.00
2017-12-13T06:04:41.383Z,0.00
2017-12-13T06:05:41.481Z,0.00
2017-12-13T06:06:41.318Z,0.00
2017-12-13T06:07:41.394Z,0.00
2017-12-13T06:08:41.257Z,0.00
2017-12-13T06:09:41.304Z,0.00
2017-12-13T06:10:41.190Z,0.00
2017-12-13T06:11:41.214Z,0.00
2017-12-13T06:12:41.119Z,0.00
2017-12-13T06:13:41.228Z,0.00
2017-12-13T06:14:41.051Z,0.00
2017-12-13T06:15:41.141Z,0.00
2017-12-13T06:16:40.985Z,0.00
2017-12-13T06:17:41.052Z,0.00
2017-12-13T06:18:40.920Z,0.00
2017-12-13T06:19:40.966Z,0.00
2017-12-13T06:20:40.854Z,0.00
2017-12-13T06:21:40.981Z,0.00
2017-12-13T06:22:40.788Z,0.00
2017-12-13T06:23:40.892Z,0.00
2017-12-13T06:24:40.726Z,0.00
2017-12-13T06:25:40.804Z,0.00
2017-12-13T06:26:40.650Z,0.00
2017-12-13T06:27:40.715Z,0.00
2017-12-13T06:28:40.590Z,0.00
2017-12-13T06:29:40.727Z,0.00
2017-12-13T06:30:40.535Z,0.00
2017-12-13T06:31:40.636Z,0.00
2017-12-13T06:32:40.453Z,0.00
2017-12-13T06:33:40.551Z,0.00
2017-12-13T06:34:40.388Z,0.00
2017-12-13T06:35:40.463Z,0.00
2017-12-13T06:36:40.323Z,0.00
2017-12-13T06:37:40.479Z,0.00
2017-12-13T06:38:40.259Z,0.00
2017-12-13T06:39:40.390Z,0.00
2017-12-13T06:40:40.189Z,0.00
2017-12-13T06:41:40.300Z,0.00
2017-12-13T06:42:40.126Z,0.00
2017-12-13T06:43:40.211Z,0.00
2017-12-13T06:44:40.058Z,0.00
2017-12-13T06:45:40.124Z,0.00
2017-12-13T06:46:39.993Z,0.00
2017-12-13T06:47:40.135Z,0.00
2017-12-13T06:48:39.927Z,0.00
2017-12-13T06:49:40.072Z,0.00
2017-12-13T06:50:39.867Z,0.00
2017-12-13T06:51:39.959Z,0.00
2017-12-13T06:52:39.796Z,0.00
2017-12-13T06:53:39.872Z,0.00
2017-12-13T06:54:39.730Z,0.00
2017-12-13T06:55:39.885Z,0.00
2017-12-13T06:56:39.670Z,0.00
2017-12-13T06:57:39.794Z,0.00
2017-12-13T06:58:39.596Z,0.00
2017-12-13T06:59:39.704Z,0.00
2017-12-13T07:00:39.535Z,0.00
2017-12-13T07:01:39.614Z,0.00
2017-12-13T07:02:39.464Z,0.00
2017-12-13T07:03:39.630Z,0.00
2017-12-13T07:04:39.400Z,0.00
2017-12-13T07:05:39.539Z,0.00
2017-12-13T07:06:39.331Z,0.00
2017-12-13T07:07:39.462Z,4.00
2017-12-13T07:08:39.275Z,0.00
2017-12-13T07:09:39.365Z,0.00
2017-12-13T07:10:39.201Z,4.00
2017-12-13T07:11:39.285Z,4.00
2017-12-13T07:12:39.138Z,4.00
2017-12-13T07:13:39.289Z,4.00
2017-12-13T07:14:39.077Z,0.00
2017-12-13T07:15:39.204Z,4.00
2017-12-13T07:16:39.008Z,0.00
2017-12-13T07:17:39.117Z,4.00
2017-12-13T07:18:38.945Z,8.00
2017-12-13T07:19:39.066Z,4.00
2017-12-13T07:20:38.878Z,8.00
2017-12-13T07:21:39.039Z,8.00
2017-12-13T07:22:38.811Z,12.00
2017-12-13T07:23:38.949Z,12.00
2017-12-13T07:24:38.745Z,12.00
2017-12-13T07:25:38.859Z,12.00
2017-12-13T07:26:38.682Z,12.00
2017-12-13T07:27:38.770Z,20.00
2017-12-13T07:28:38.621Z,20.00
2017-12-13T07:29:38.794Z,20.00
2017-12-13T07:30:38.557Z,20.00
2017-12-13T07:31:38.707Z,24.00
2017-12-13T07:32:38.491Z,24.00
2017-12-13T07:33:38.508Z,24.00
2017-12-13T07:34:38.420Z,28.00
2017-12-13T07:35:38.431Z,28.00
2017-12-13T07:36:38.361Z,32.00
2017-12-13T07:37:38.437Z,32.00
2017-12-13T07:38:38.287Z,36.00
2017-12-13T07:39:38.356Z,36.00
2017-12-13T07:40:38.230Z,40.00
2017-12-13T07:41:38.254Z,44.00
2017-12-13T07:42:38.157Z,48.00
2017-12-13T07:43:38.163Z,52.00
2017-12-13T07:44:38.104Z,56.00
2017-12-13T07:45:38.184Z,60.00
2017-12-13T07:46:38.032Z,60.00
2017-12-13T07:47:38.100Z,64.00
2017-12-13T07:48:37.966Z,72.00
2017-12-13T07:49:38.002Z,68.00
2017-12-13T07:50:37.900Z,72.00
2017-12-13T07:51:37.917Z,72.00
2017-12-13T07:52:37.836Z,76.00
2017-12-13T07:53:37.927Z,88.00
2017-12-13T07:54:37.775Z,96.00
2017-12-13T07:55:37.842Z,108.00
2017-12-13T07:56:37.702Z,124.00
2017-12-13T07:57:37.747Z,136.00
2017-12-13T07:58:37.637Z,148.00
2017-12-13T07:59:37.659Z,152.00
2017-12-13T08:00:37.579Z,148.00
2017-12-13T08:01:37.674Z,148.00
2017-12-13T08:02:37.514Z,136.00
2017-12-13T08:03:37.585Z,132.00
2017-12-13T08:04:37.452Z,120.00
2017-12-13T08:05:37.503Z,108.00
2017-12-13T08:06:37.382Z,88.00
2017-12-13T08:07:37.427Z,80.00
2017-12-13T08:08:37.313Z,76.00
2017-12-13T08:09:37.426Z,84.00
2017-12-13T08:10:37.249Z,84.00
2017-12-13T08:11:37.344Z,64.00
2017-12-13T08:12:37.187Z,60.00
2017-12-13T08:13:37.255Z,64.00
2017-12-13T08:14:37.122Z,64.00
2017-12-13T08:15:37.174Z,64.00
2017-12-13T08:16:37.062Z,60.00
2017-12-13T08:17:37.217Z,56.00
2017-12-13T08:18:36.996Z,52.00
2017-12-13T08:19:37.079Z,48.00
2017-12-13T08:20:36.936Z,48.00
2017-12-13T08:21:36.993Z,48.00
2017-12-13T08:22:36.859Z,56.00
2017-12-13T08:23:36.902Z,60.00
2017-12-13T08:24:36.800Z,60.00
2017-12-13T08:25:36.920Z,64.00
2017-12-13T08:26:36.733Z,64.00
2017-12-13T08:27:36.833Z,68.00
2017-12-13T08:28:36.691Z,80.00
2017-12-13T08:29:36.741Z,88.00
2017-12-13T08:30:36.604Z,104.00
2017-12-13T08:31:36.659Z,124.00
2017-12-13T08:32:36.541Z,144.00
2017-12-13T08:33:36.563Z,156.00
2017-12-13T08:34:36.497Z,164.00
2017-12-13T08:35:36.603Z,180.00
2017-12-13T08:36:36.408Z,196.00
2017-12-13T08:37:36.499Z,208.00
2017-12-13T08:38:36.342Z,204.00
2017-12-13T08:39:36.405Z,208.00
2017-12-13T08:40:36.280Z,208.00
2017-12-13T08:41:36.316Z,204.00
2017-12-13T08:42:36.220Z,208.00
2017-12-13T08:43:36.329Z,212.00
2017-12-13T08:44:36.155Z,220.00
2017-12-13T08:45:36.251Z,236.00
2017-12-13T08:46:36.087Z,244.00
2017-12-13T08:47:36.150Z,240.00
2017-12-13T08:48:36.027Z,228.00
2017-12-13T08:49:36.115Z,212.00
2017-12-13T08:50:35.955Z,204.00
2017-12-13T08:51:36.076Z,196.00
2017-12-13T08:52:35.894Z,172.00
2017-12-13T08:53:35.991Z,160.00
2017-12-13T08:54:35.831Z,144.00
2017-12-13T08:55:35.902Z,128.00
2017-12-13T08:56:35.766Z,120.00
2017-12-13T08:57:35.811Z,108.00
2017-12-13T08:58:35.703Z,100.00
2017-12-13T08:59:35.827Z,100.00
2017-12-13T09:00:35.635Z,92.00
2017-12-13T09:01:35.602Z,92.00
2017-12-13T09:02:35.646Z,96.00
2017-12-13T09:03:35.539Z,92.00
2017-12-13T09:04:35.552Z,92.00
2017-12-13T09:05:35.480Z,100.00
2017-12-13T09:06:35.444Z,112.00
2017-12-13T09:07:35.412Z,128.00
2017-12-13T09:08:35.493Z,128.00
2017-12-13T09:09:35.349Z,124.00
2017-12-13T09:10:35.391Z,124.00
2017-12-13T09:11:35.281Z,124.00
2017-12-13T09:12:35.306Z,132.00
2017-12-13T09:13:35.221Z,136.00
2017-12-13T09:14:35.215Z,128.00
2017-12-13T09:15:35.155Z,120.00
2017-12-13T09:16:35.126Z,120.00
2017-12-13T09:17:35.099Z,124.00
2017-12-13T09:18:35.242Z,120.00
2017-12-13T09:19:35.032Z,120.00
2017-12-13T09:20:35.052Z,124.00
2017-12-13T09:21:34.966Z,120.00
2017-12-13T09:22:34.931Z,120.00
2017-12-13T09:23:35.073Z,120.00
2017-12-13T09:24:34.880Z,120.00
2017-12-13T09:25:34.982Z,132.00
2017-12-13T09:26:34.805Z,144.00
2017-12-13T09:27:34.896Z,144.00
2017-12-13T09:28:34.739Z,136.00
2017-12-13T09:29:34.804Z,132.00
2017-12-13T09:30:34.672Z,136.00
2017-12-13T09:31:34.820Z,128.00
2017-12-13T09:32:34.618Z,124.00
2017-12-13T09:33:34.731Z,132.00
2017-12-13T09:34:34.549Z,136.00
2017-12-13T09:35:34.642Z,136.00
2017-12-13T09:36:34.484Z,136.00
2017-12-13T09:37:34.662Z,140.00
2017-12-13T09:38:34.419Z,140.00
2017-12-13T09:39:34.566Z,140.00
2017-12-13T09:40:34.353Z,136.00
2017-12-13T09:41:34.478Z,136.00
2017-12-13T09:42:34.291Z,132.00
2017-12-13T09:43:34.266Z,132.00
2017-12-13T09:44:34.228Z,144.00
2017-12-13T09:45:34.403Z,152.00
2017-12-13T09:46:34.162Z,152.00
2017-12-13T09:47:34.317Z,152.00
2017-12-13T09:48:34.097Z,172.00
2017-12-13T09:49:34.064Z,180.00
2017-12-13T09:50:34.236Z,188.00
2017-12-13T09:51:34.001Z,200.00
2017-12-13T09:52:34.045Z,216.00
2017-12-13T09:53:33.943Z,236.00
2017-12-13T09:54:33.954Z,236.00
2017-12-13T09:55:33.876Z,248.00
2017-12-13T09:56:33.869Z,252.00
2017-12-13T09:57:33.806Z,248.00
2017-12-13T09:58:33.880Z,228.00
2017-12-13T09:59:33.746Z,228.00
2017-12-13T10:00:33.790Z,220.00
2017-12-13T10:01:33.688Z,224.00
2017-12-13T10:02:33.663Z,232.00
2017-12-13T10:03:33.708Z,224.00
2017-12-13T10:04:33.586Z,236.00
2017-12-13T10:05:33.620Z,248.00
2017-12-13T10:06:33.528Z,248.00
2017-12-13T10:07:33.531Z,244.00
2017-12-13T10:08:33.466Z,228.00
2017-12-13T10:09:33.440Z,248.00
2017-12-13T10:10:33.404Z,252.00
2017-12-13T10:11:33.456Z,228.00
2017-12-13T10:12:33.329Z,220.00
2017-12-13T10:13:33.368Z,228.00
2017-12-13T10:14:33.266Z,244.00
2017-12-13T10:15:33.274Z,232.00
2017-12-13T10:16:33.201Z,196.00
2017-12-13T10:17:33.228Z,232.00
2017-12-13T10:18:33.140Z,252.00
2017-12-13T10:19:33.118Z,244.00
2017-12-13T10:20:33.073Z,232.00
2017-12-13T10:21:33.118Z,208.00
2017-12-13T10:22:33.009Z,176.00
2017-12-13T10:23:33.026Z,164.00
2017-12-13T10:24:32.942Z,156.00
2017-12-13T10:25:32.937Z,140.00
2017-12-13T10:26:32.882Z,124.00
2017-12-13T10:27:32.952Z,132.00
2017-12-13T10:28:32.818Z,144.00
2017-12-13T10:29:32.863Z,160.00
2017-12-13T10:30:32.757Z,160.00
2017-12-13T10:31:32.776Z,176.00
2017-12-13T10:32:32.690Z,188.00
2017-12-13T10:33:32.689Z,180.00
2017-12-13T10:34:32.681Z,172.00
2017-12-13T10:35:32.699Z,164.00
2017-12-13T10:36:32.591Z,168.00
2017-12-13T10:37:32.660Z,180.00
2017-12-13T10:38:32.498Z,188.00
2017-12-13T10:39:32.525Z,200.00
2017-12-13T10:40:32.431Z,208.00
2017-12-13T10:41:32.487Z,216.00
2017-12-13T10:42:32.376Z,236.00
2017-12-13T10:43:32.448Z,232.00
2017-12-13T10:44:32.307Z,224.00
2017-12-13T10:45:32.365Z,208.00
2017-12-13T10:46:32.238Z,224.00
2017-12-13T10:47:32.275Z,208.00
2017-12-13T10:48:32.177Z,204.00
2017-12-13T10:49:32.187Z,216.00
2017-12-13T10:50:32.111Z,220.00
2017-12-13T10:51:32.196Z,208.00
2017-12-13T10:52:32.048Z,196.00
2017-12-13T10:53:32.105Z,192.00
2017-12-13T10:54:31.984Z,196.00
2017-12-13T10:55:32.016Z,196.00
2017-12-13T10:56:31.923Z,196.00
2017-12-13T10:57:31.929Z,192.00
2017-12-13T10:58:31.858Z,192.00
2017-12-13T10:59:31.841Z,192.00
2017-12-13T11:00:31.796Z,212.00
2017-12-13T11:01:31.860Z,224.00
2017-12-13T11:02:31.727Z,236.00
2017-12-13T11:03:31.767Z,232.00
2017-12-13T11:04:31.666Z,204.00
2017-12-13T11:05:31.679Z,212.00
2017-12-13T11:06:31.601Z,204.00
2017-12-13T11:07:31.590Z,192.00
2017-12-13T11:08:31.541Z,180.00
2017-12-13T11:09:31.613Z,172.00
2017-12-13T11:10:31.469Z,172.00
2017-12-13T11:11:31.440Z,176.00
2017-12-13T11:12:31.411Z,168.00
2017-12-13T11:13:31.424Z,172.00
2017-12-13T11:14:31.343Z,176.00
2017-12-13T11:15:31.337Z,192.00
2017-12-13T11:16:31.280Z,200.00
2017-12-13T11:17:31.352Z,208.00
2017-12-13T11:18:31.214Z,216.00
2017-12-13T11:19:31.262Z,232.00
2017-12-13T11:20:31.155Z,244.00
2017-12-13T11:21:31.176Z,248.00
2017-12-13T11:22:31.090Z,256.00
2017-12-13T11:23:31.084Z,256.00
2017-12-13T11:24:31.025Z,248.00
2017-12-13T11:25:31.099Z,228.00
2017-12-13T11:26:30.960Z,208.00
2017-12-13T11:27:31.011Z,192.00
2017-12-13T11:28:30.898Z,184.00
2017-12-13T11:29:30.925Z,184.00
2017-12-13T11:30:30.833Z,192.00
2017-12-13T11:31:30.839Z,196.00
2017-12-13T11:32:30.768Z,208.00
2017-12-13T11:33:30.902Z,212.00
2017-12-13T11:34:30.706Z,212.00
2017-12-13T11:35:30.763Z,224.00
2017-12-13T11:36:30.644Z,236.00
2017-12-13T11:37:30.672Z,232.00
2017-12-13T11:38:30.575Z,240.00
2017-12-13T11:39:30.612Z,228.00
2017-12-13T11:40:30.512Z,204.00
2017-12-13T11:41:30.598Z,196.00
2017-12-13T11:42:30.455Z,196.00
2017-12-13T11:43:30.530Z,204.00
2017-12-13T11:44:30.390Z,220.00
2017-12-13T11:45:30.419Z,228.00
2017-12-13T11:46:30.321Z,228.00
2017-12-13T11:47:30.330Z,236.00
2017-12-13T11:48:30.255Z,236.00
2017-12-13T11:49:30.238Z,248.00
2017-12-13T11:50:30.189Z,236.00
2017-12-13T11:51:30.265Z,236.00
2017-12-13T11:52:30.127Z,236.00
2017-12-13T11:53:30.171Z,236.00
2017-12-13T11:54:30.068Z,240.00
2017-12-13T11:55:30.078Z,244.00
2017-12-13T11:56:30.001Z,244.00
2017-12-13T11:57:29.989Z,228.00
2017-12-13T11:58:29.940Z,220.00
2017-12-13T11:59:30.005Z,220.00
2017-12-13T12:00:29.871Z,208.00
2017-12-13T12:01:29.915Z,212.00
2017-12-13T12:02:29.810Z,232.00
2017-12-13T12:03:29.827Z,220.00
2017-12-13T12:04:29.745Z,224.00
2017-12-13T12:05:29.742Z,236.00
2017-12-13T12:06:29.684Z,240.00
2017-12-13T12:07:29.752Z,228.00
2017-12-13T12:08:29.615Z,220.00
2017-12-13T12:09:29.680Z,204.00
2017-12-13T12:10:29.560Z,200.00
2017-12-13T12:11:29.573Z,204.00
2017-12-13T12:12:29.491Z,200.00
2017-12-13T12:13:29.483Z,200.00
2017-12-13T12:14:29.427Z,204.00
2017-12-13T12:15:29.496Z,216.00
2017-12-13T12:16:29.365Z,244.00
2017-12-13T12:17:29.415Z,240.00
2017-12-13T12:18:29.303Z,220.00
2017-12-13T12:19:29.322Z,196.00
2017-12-13T12:20:29.236Z,196.00
2017-12-13T12:21:29.239Z,188.00
2017-12-13T12:22:29.180Z,196.00
2017-12-13T12:23:30.431Z,200.00
2017-12-13T12:24:29.110Z,204.00
2017-12-13T12:25:29.162Z,216.00
2017-12-13T12:26:29.051Z,216.00
2017-12-13T12:27:29.075Z,204.00
2017-12-13T12:28:29.022Z,208.00
2017-12-13T12:29:28.986Z,232.00
2017-12-13T12:30:28.928Z,244.00
2017-12-13T12:31:28.996Z,236.00
2017-12-13T12:32:28.916Z,248.00
2017-12-13T12:33:28.915Z,272.00
2017-12-13T12:34:28.788Z,280.00
2017-12-13T12:35:28.820Z,260.00
2017-12-13T12:36:28.749Z,244.00
2017-12-13T12:37:28.731Z,252.00
2017-12-13T12:38:28.669Z,220.00
2017-12-13T12:39:28.632Z,204.00
2017-12-13T12:40:28.612Z,188.00
2017-12-13T12:41:28.653Z,188.00
2017-12-13T12:42:28.547Z,172.00
2017-12-13T12:43:28.571Z,152.00
2017-12-13T12:44:28.486Z,152.00
2017-12-13T12:45:28.482Z,148.00
2017-12-13T12:46:28.414Z,140.00
2017-12-13T12:47:28.490Z,152.00
2017-12-13T12:48:28.377Z,164.00
2017-12-13T12:49:28.407Z,192.00
2017-12-13T12:50:28.285Z,208.00
2017-12-13T12:51:28.315Z,216.00
2017-12-13T12:52:28.225Z,216.00
2017-12-13T12:53:28.229Z,224.00
2017-12-13T12:54:28.157Z,224.00
2017-12-13T12:55:28.244Z,236.00
2017-12-13T12:56:28.093Z,264.00
2017-12-13T12:57:28.157Z,260.00
2017-12-13T12:58:28.030Z,248.00
2017-12-13T12:59:28.064Z,264.00
2017-12-13T13:00:27.975Z,268.00
2017-12-13T13:01:27.975Z,260.00
2017-12-13T13:02:27.906Z,284.00
2017-12-13T13:03:27.996Z,272.00
2017-12-13T13:04:27.893Z,268.00
2017-12-13T13:05:27.814Z,252.00
2017-12-13T13:06:27.906Z,248.00
2017-12-13T13:07:27.748Z,248.00
2017-12-13T13:08:27.820Z,248.00
2017-12-13T13:09:27.687Z,248.00
2017-12-13T13:10:27.735Z,244.00
2017-12-13T13:11:27.622Z,248.00
2017-12-13T13:12:27.645Z,256.00
2017-12-13T13:13:27.556Z,256.00
2017-12-13T13:14:27.657Z,240.00
2017-12-13T13:15:27.490Z,232.00
2017-12-13T13:16:27.571Z,228.00
2017-12-13T13:17:27.434Z,228.00
2017-12-13T13:18:27.482Z,228.00
2017-12-13T13:19:27.366Z,232.00
2017-12-13T13:20:27.495Z,236.00
2017-12-13T13:21:27.301Z,244.00
2017-12-13T13:22:27.404Z,248.00
2017-12-13T13:23:27.235Z,252.00
2017-12-13T13:24:27.317Z,264.00
2017-12-13T13:25:27.176Z,272.00
2017-12-13T13:26:27.226Z,292.00
2017-12-13T13:27:27.116Z,312.00
2017-12-13T13:28:27.138Z,324.00
2017-12-13T13:29:27.047Z,320.00